createdAt,value
2018-06-21T00:01:56.740Z,65.40
2018-06-21T00:07:00.354Z,65.80
2018-06-21T00:12:03.040Z,65.70
2018-06-21T00:17:05.678Z,65.80
2018-06-21T00:22:08.321Z,65.50
2018-06-21T00:27:12.145Z,65.60
2018-06-21T00:32:14.716Z,65.60
2018-06-21T00:37:17.287Z,66.10
2018-06-21T00:42:19.905Z,66.10
2018-06-21T00:47:22.560Z,66.20
2018-06-21T00:52:25.146Z,66.00
2018-06-21T00:57:27.811Z,65.90
2018-06-21T01:02:30.397Z,65.50
2018-06-21T01:07:33.281Z,65.90
2018-06-21T01:12:35.945Z,66.00
2018-06-21T01:17:38.729Z,66.20
2018-06-21T01:22:42.048Z,66.20
2018-06-21T01:27:45.463Z,66.20
2018-06-21T01:32:48.080Z,66.40
2018-06-21T01:37:51.174Z,66.60
2018-06-21T01:42:54.080Z,66.50
2018-06-21T01:47:56.651Z,66.60
2018-06-21T01:52:59.604Z,66.80
2018-06-21T01:58:02.660Z,67.00
2018-06-21T02:03:05.331Z,66.90
2018-06-21T02:08:07.961Z,67.30
2018-06-21T02:13:11.333Z,67.20
2018-06-21T02:18:14.704Z,67.60
2018-06-21T02:23:17.617Z,67.90
2018-06-21T02:28:20.222Z,68.10
2018-06-21T02:33:22.807Z,68.30
2018-06-21T02:38:25.392Z,68.10
2018-06-21T02:43:28.173Z,68.40
2018-06-21T02:48:30.771Z,68.20
2018-06-21T02:53:33.434Z,68.40
2018-06-21T02:58:36.783Z,68.90
2018-06-21T03:03:39.686Z,68.70
2018-06-21T03:08:42.346Z,68.80
2018-06-21T03:13:45.218Z,69.30
2018-06-21T03:18:48.655Z,69.20
2018-06-21T03:23:51.304Z,69.10
2018-06-21T03:28:53.948Z,69.30
2018-06-21T03:33:56.646Z,69.30
2018-06-21T03:39:00.090Z,69.50
2018-06-21T03:44:02.744Z,69.60
2018-06-21T03:49:05.605Z,69.80
2018-06-21T03:54:08.165Z,69.80
2018-06-21T03:59:10.834Z,69.60
2018-06-21T04:04:14.159Z,70.00
2018-06-21T04:09:16.714Z,70.00
2018-06-21T04:14:19.280Z,70.30
2018-06-21T04:19:21.920Z,70.40
2018-06-21T04:24:24.497Z,70.90
2018-06-21T04:29:27.080Z,71.10
2018-06-21T04:34:29.650Z,70.70
2018-06-21T04:39:32.257Z,71.00
2018-06-21T04:44:35.166Z,71.00
2018-06-21T04:49:37.775Z,71.40
2018-06-21T04:54:40.709Z,71.40
2018-06-21T04:59:43.496Z,74.00
2018-06-21T05:04:46.194Z,73.20
2018-06-21T05:09:50.324Z,72.40
2018-06-21T05:14:52.963Z,71.90
2018-06-21T05:19:59.064Z,72.00
2018-06-21T05:25:03.303Z,71.40
2018-06-21T05:30:05.884Z,71.70
2018-06-21T05:35:08.710Z,71.30
2018-06-21T05:40:11.337Z,71.00
2018-06-21T05:45:14.340Z,71.20
2018-06-21T05:50:17.258Z,70.90
2018-06-21T05:55:19.869Z,70.40
2018-06-21T06:00:22.812Z,70.60
2018-06-21T06:05:25.469Z,70.60
2018-06-21T06:10:29.167Z,70.10
2018-06-21T06:15:32.884Z,69.20
2018-06-21T06:20:35.711Z,69.10
2018-06-21T06:25:38.592Z,69.30
2018-06-21T06:30:42.017Z,68.40
2018-06-21T06:35:47.492Z,67.70
2018-06-21T06:40:51.791Z,66.90
2018-06-21T06:45:54.768Z,66.90
2018-06-21T06:50:58.467Z,67.20
2018-06-21T06:56:01.274Z,67.00
2018-06-21T07:01:04.405Z,66.20
2018-06-21T07:06:07.175Z,65.80
2018-06-21T07:11:10.241Z,66.10
2018-06-21T07:16:13.058Z,65.20
2018-06-21T07:21:16.636Z,65.60
2018-06-21T07:26:20.434Z,64.60
2018-06-21T07:31:27.923Z,63.80
2018-06-21T07:36:31.025Z,62.80
2018-06-21T07:41:34.005Z,62.40
2018-06-21T07:46:37.145Z,61.30
2018-06-21T07:51:39.973Z,61.40
2018-06-21T07:56:42.911Z,60.40
2018-06-21T08:01:46.384Z,59.50
2018-06-21T08:06:49.322Z,58.60
2018-06-21T08:11:53.122Z,57.80
2018-06-21T08:16:57.262Z,58.40
2018-06-21T08:22:03.003Z,58.20
2018-06-21T08:27:06.003Z,57.30
2018-06-21T08:32:09.438Z,56.80
2018-06-21T08:37:12.174Z,55.70
2018-06-21T08:42:20.646Z,55.50
2018-06-21T08:47:39.480Z,54.70
2018-06-21T09:18:16.097Z,53.10
2018-06-21T09:23:18.635Z,52.80
2018-06-21T09:28:21.156Z,52.40
2018-06-21T09:33:23.678Z,50.50
2018-06-21T09:38:26.280Z,51.30
2018-06-21T09:43:50.293Z,51.40
2018-06-21T09:48:46.871Z,50.90
2018-06-21T09:53:49.412Z,50.90
2018-06-21T09:58:51.939Z,51.00
2018-06-21T10:03:54.467Z,50.50
2018-06-21T10:08:57.000Z,49.30
2018-06-21T10:13:59.531Z,50.30
2018-06-21T10:19:02.079Z,49.70
2018-06-21T10:24:05.388Z,47.80
2018-06-21T10:29:07.924Z,47.80
2018-06-21T10:34:10.451Z,47.90
2018-06-21T10:39:13.025Z,47.30
2018-06-21T10:44:15.503Z,47.90
2018-06-21T10:49:18.034Z,47.50
2018-06-21T10:54:20.578Z,47.60
2018-06-21T10:59:23.144Z,45.20
2018-06-21T11:04:25.698Z,45.00
2018-06-21T11:09:28.216Z,44.30
2018-06-21T11:14:31.684Z,43.40
2018-06-21T11:19:34.220Z,43.30
2018-06-21T11:24:36.747Z,42.40
2018-06-21T11:29:39.275Z,41.70
2018-06-21T11:34:41.802Z,41.30
2018-06-21T11:39:44.412Z,39.70
2018-06-21T11:44:46.952Z,40.40
2018-06-21T11:49:49.558Z,41.00
2018-06-21T11:54:52.400Z,37.80
2018-06-21T11:59:54.929Z,38.70
2018-06-21T12:04:57.447Z,38.20
2018-06-21T12:09:59.969Z,38.80
2018-06-21T12:15:02.502Z,38.90
2018-06-21T12:20:05.826Z,37.60
2018-06-21T12:25:08.356Z,37.50
2018-06-21T12:30:10.906Z,37.60
2018-06-21T12:35:13.471Z,37.70
2018-06-21T12:40:16.021Z,37.60
2018-06-21T12:45:20.219Z,38.80
2018-06-21T12:50:22.764Z,38.80
2018-06-21T12:55:25.281Z,38.90
2018-06-21T13:00:27.813Z,40.40
2018-06-21T13:05:30.446Z,40.70
2018-06-21T13:10:55.537Z,40.10
2018-06-21T13:15:58.076Z,39.80
2018-06-21T13:21:00.607Z,37.70
2018-06-21T13:26:03.154Z,35.30
2018-06-21T13:31:05.705Z,34.70
2018-06-21T13:36:08.268Z,34.90
2018-06-21T13:41:10.816Z,35.10
2018-06-21T13:46:13.348Z,34.60
2018-06-21T13:51:15.881Z,32.50
2018-06-21T13:56:18.437Z,31.90
2018-06-21T14:01:20.988Z,30.90
2018-06-21T14:06:23.537Z,31.40
2018-06-21T14:11:26.072Z,32.30
2018-06-21T14:16:28.594Z,30.60
2018-06-21T14:21:31.132Z,30.30
2018-06-21T14:26:33.681Z,31.40
2018-06-21T14:31:36.210Z,31.50
2018-06-21T14:36:38.855Z,31.60
2018-06-21T14:41:41.396Z,31.80
2018-06-21T14:46:44.395Z,34.60
2018-06-21T14:51:49.375Z,34.00
2018-06-21T14:56:52.495Z,34.60
2018-06-21T15:01:55.621Z,33.30
2018-06-21T15:06:59.142Z,33.90
2018-06-21T15:12:02.171Z,34.60
2018-06-21T15:17:05.739Z,34.20
2018-06-21T15:22:08.308Z,35.10
2018-06-21T15:27:10.877Z,35.70
2018-06-21T15:32:13.524Z,35.80
2018-06-21T15:37:16.071Z,36.80
2018-06-21T15:42:18.605Z,37.20
2018-06-21T15:47:21.126Z,37.50
2018-06-21T15:52:23.663Z,38.20
2018-06-21T15:57:26.234Z,38.80
2018-06-21T16:02:28.748Z,38.70
2018-06-21T16:07:31.272Z,38.00
2018-06-21T16:12:35.546Z,39.10
2018-06-21T16:17:38.854Z,40.30
2018-06-21T16:22:42.165Z,40.90
2018-06-21T16:27:45.496Z,41.80
2018-06-21T16:32:48.787Z,42.20
2018-06-21T16:37:51.347Z,42.20
2018-06-21T16:42:53.939Z,42.80
2018-06-21T16:47:56.472Z,43.80
2018-06-21T16:52:59.028Z,44.20
2018-06-21T16:58:01.581Z,44.50
2018-06-21T17:03:04.895Z,44.90
2018-06-21T17:08:07.433Z,44.60
2018-06-21T17:13:10.004Z,44.40
2018-06-21T17:18:12.547Z,44.30
2018-06-21T17:23:15.369Z,44.60
2018-06-21T17:28:17.904Z,44.90
2018-06-21T17:33:20.444Z,44.90
2018-06-21T17:38:23.021Z,45.20
2018-06-21T17:43:30.189Z,45.10
2018-06-21T17:48:33.669Z,46.10
2018-06-21T17:53:42.538Z,45.70
2018-06-21T17:58:45.237Z,45.50
2018-06-21T18:03:47.766Z,45.10
2018-06-21T18:08:50.336Z,44.40
2018-06-21T18:13:52.895Z,44.70
2018-06-21T18:18:55.421Z,44.50
2018-06-21T18:23:57.967Z,44.20
2018-06-21T18:29:00.995Z,43.70
2018-06-21T18:34:03.611Z,44.00
2018-06-21T18:39:06.135Z,44.40
2018-06-21T18:44:08.676Z,45.00
2018-06-21T18:49:11.242Z,45.60
2018-06-21T18:54:13.826Z,45.80
2018-06-21T18:59:16.373Z,45.50
2018-06-21T19:04:19.070Z,45.40
2018-06-21T19:09:39.375Z,46.00
2018-06-21T19:14:42.339Z,45.90
2018-06-21T19:19:44.897Z,46.40
2018-06-21T19:24:47.433Z,45.80
2018-06-21T19:29:50.739Z,44.90
2018-06-21T19:34:54.043Z,44.80
2018-06-21T19:39:56.578Z,44.70
2018-06-21T19:44:59.121Z,44.30
2018-06-21T19:50:01.686Z,44.20
2018-06-21T19:55:04.221Z,43.80
2018-06-21T20:00:06.857Z,43.10
2018-06-21T20:05:09.394Z,42.10
2018-06-21T20:10:11.925Z,41.40
2018-06-21T20:15:14.453Z,41.30
2018-06-21T20:20:16.983Z,41.10
2018-06-21T20:25:19.504Z,40.60
2018-06-21T20:30:22.041Z,40.50
2018-06-21T20:35:24.564Z,40.00
2018-06-21T20:40:27.097Z,40.50
2018-06-21T20:45:29.622Z,40.80
2018-06-21T20:50:32.197Z,40.80
2018-06-21T20:55:35.468Z,40.50
2018-06-21T21:00:38.005Z,40.50
2018-06-21T21:05:40.539Z,40.80
2018-06-21T21:10:43.328Z,40.60
2018-06-21T21:15:45.869Z,40.70
2018-06-21T21:20:49.167Z,40.60
2018-06-21T21:25:51.712Z,40.50
2018-06-21T21:30:54.251Z,40.40
2018-06-21T21:35:56.795Z,40.60
2018-06-21T21:40:59.323Z,40.80
2018-06-21T21:46:01.856Z,40.70
2018-06-21T21:51:04.388Z,41.20
2018-06-21T21:56:07.676Z,40.50
2018-06-21T22:01:10.221Z,40.40
2018-06-21T22:06:12.762Z,39.60
2018-06-21T22:11:15.325Z,39.30
2018-06-21T22:16:17.856Z,38.40
2018-06-21T22:21:20.399Z,37.60
2018-06-21T22:26:22.944Z,37.70
2018-06-21T22:31:25.507Z,37.70
2018-06-21T22:36:28.033Z,37.70
2018-06-21T22:41:30.569Z,37.70
2018-06-21T22:46:33.113Z,37.90
2018-06-21T22:51:35.694Z,37.90
2018-06-21T22:56:38.215Z,37.90
2018-06-21T23:01:40.748Z,38.30
2018-06-21T23:06:43.288Z,38.10
2018-06-21T23:11:46.586Z,38.00
2018-06-21T23:16:49.117Z,38.00
2018-06-21T23:21:51.632Z,38.10
2018-06-21T23:26:54.285Z,38.10
2018-06-21T23:31:56.720Z,38.30
2018-06-21T23:36:59.248Z,38.50
2018-06-21T23:42:01.803Z,38.50
2018-06-21T23:47:04.328Z,38.80
2018-06-21T23:52:07.000Z,38.80
2018-06-21T23:57:09.536Z,38.80
